メインページ
METAR-TAF:

METAR-TAF

空港 :

Slave Lake, アルバータ州, カナダ

緯度: 55-18N, 経度: 114-47W, 海抜: 581m

現時点の気象観測

当レポートは12分前の23:09(UTC)に作成
の風 5kt
気温 19°C
湿度 68%
気圧 1009 hPa
視程: 14.5km
高度15000ftの雲は散在している
高度18000ftの千切れ雲あり
高度21000ftの千切れ雲あり
近辺で激しい雷雨

METAR: CYZH 162309Z AUTO 18005KT 9SM VCTS SCT150 BKN180 BKN210 19/13 A2981 RMK LTNG DIST ALQDS SLP103 DENSITY ALT 2900FT

時間: 17:21 (23:21 UTC)

予報

当レポートは1時間6分前の22:15(UTC)に作成
予報は16日の 22時(UTC)から 17日の 07時(UTC)まで有効
北西の風 5kt
視程: 10km
高度5000ftの雲はほとんどない
高度12000ftの雲は散在している
16日の 22時(UTC)から 17日の 01時(UTC)まで一時的に
変向風 15kt、最大25ktの突風を伴う
視程: 8.0km
高度5000ftの千切れ雲あり, 積乱雲.
高度12000ftの千切れ雲あり
激しい雷雨, 雨
17日の 0100時(UTC)から
北西の風 5kt
視程: 10km
高度5000ftの雲は散在している
17日の 01時(UTC)から 17日の 03時(UTC)まで一時的に
視程: 10km
高度5000ftの千切れ雲あり
近辺でにわか雨
確率 30%
17日の 01時(UTC)から 17日の 03時(UTC)まで
変向風 15kt、最大25ktの突風を伴う
視程: 6.4km
高度2000ftの千切れ雲あり
高度5000ftの千切れ雲あり, 積乱雲.
激しい雷雨, 雨
17日の 0300時(UTC)から
の風 5kt
視程: 10km
高度5000ftの雲は散在している

TAF: CYZH 162215Z 1622/1707 32005KT P6SM FEW050 SCT120 TEMPO 1622/1701 VRB15G25KT 5SM TSRA BKN050CB BKN120 FM170100 32005KT P6SM SCT050 TEMPO 1701/1703 P6SM VCSH BKN050 PROB30 1701/1703 VRB15G25KT 4SM TSRA BKN020 BKN050CB FM170300 18005KT P6SM SCT050 RMK FCST BASED ON AUTO OBS. NXT FCST BY 170100Z

4,000以上の空港の気象観測と天気予報(METAR報とTAF報)

利用可能な観測所は地図上に黄色い丸と赤い丸で示す。

丸の上にカーソルを重ねると観測所名を参照できる。

次にクリックすると気象観測と天気予報を参照できる。

マップの切り替え:黒色「×」印の緑ボタンをクリックして拡大、「-」印の緑ボタンをクリックして縮小、緑色の三角印をクリックして隣りの地図に切り替え


METAR-TAF: